createdAt,value
2022-11-03T06:49:30.036Z,9.30
2022-11-03T06:52:35.035Z,9.50
2022-11-03T06:55:38.897Z,9.90
2022-11-03T06:58:41.473Z,10.20
2022-11-03T07:01:46.083Z,10.30
2022-11-03T07:04:47.838Z,10.50
2022-11-03T07:07:52.318Z,10.70
2022-11-03T07:11:02.725Z,10.90
2022-11-03T07:14:15.223Z,10.90
2022-11-03T07:17:21.972Z,11.00
2022-11-03T07:20:23.817Z,11.10
2022-11-03T07:23:29.461Z,11.20
2022-11-03T07:26:33.291Z,11.10
2022-11-03T07:29:34.959Z,11.10
2022-11-03T07:32:36.676Z,11.20
2022-11-03T07:36:13.132Z,11.20
2022-11-03T07:39:04.231Z,11.30
2022-11-03T07:42:23.419Z,11.50
2022-11-03T07:45:49.587Z,11.70
2022-11-03T07:48:57.863Z,11.70
2022-11-03T07:51:59.996Z,11.80
2022-11-03T07:55:01.973Z,11.90
2022-11-03T07:58:19.201Z,11.90
2022-11-03T08:01:27.711Z,12.00
2022-11-03T08:04:35.350Z,12.10
2022-11-03T08:07:37.072Z,12.30
2022-11-03T08:10:38.727Z,12.50
2022-11-03T08:13:41.018Z,12.40
2022-11-03T08:16:42.834Z,12.30
2022-11-03T08:19:44.506Z,12.60
2022-11-03T08:23:05.074Z,12.40
2022-11-03T08:26:08.567Z,12.60
2022-11-03T08:29:10.299Z,12.70
2022-11-03T08:32:11.980Z,12.90
2022-11-03T08:35:13.919Z,12.90
2022-11-03T08:38:15.989Z,12.60
2022-11-03T08:41:17.766Z,12.40
2022-11-03T08:44:19.461Z,12.90
2022-11-03T08:47:21.379Z,13.00
2022-11-03T08:50:23.435Z,13.00
2022-11-03T08:53:27.040Z,12.90
2022-11-03T08:56:28.761Z,13.00
2022-11-03T08:59:30.479Z,13.50
2022-11-03T09:02:32.763Z,14.30
2022-11-03T09:05:34.694Z,14.90
2022-11-03T09:11:58.006Z,16.10
2022-11-03T09:14:59.956Z,15.90
2022-11-03T09:18:01.868Z,15.70
2022-11-03T09:21:03.698Z,15.90
2022-11-03T09:24:05.866Z,16.30
2022-11-03T09:27:07.611Z,16.20
2022-11-03T09:30:14.158Z,16.20
2022-11-03T09:33:16.408Z,16.40
2022-11-03T09:36:18.061Z,16.10
2022-11-03T09:39:19.764Z,16.30
2022-11-03T09:42:22.238Z,16.10
2022-11-03T09:45:23.979Z,15.50
2022-11-03T09:48:26.601Z,15.50
2022-11-03T09:51:28.961Z,15.40
2022-11-03T09:54:31.390Z,15.30
2022-11-03T09:57:33.097Z,15.50
2022-11-03T10:00:34.957Z,15.60
2022-11-03T10:03:36.673Z,15.70
2022-11-03T10:06:39.192Z,15.40
2022-11-03T10:09:46.295Z,15.20
2022-11-03T10:12:49.911Z,14.80
2022-11-03T10:15:51.633Z,15.10
2022-11-03T10:18:53.569Z,14.90
2022-11-03T10:21:55.371Z,15.30
2022-11-03T10:25:36.972Z,15.20
2022-11-03T10:28:38.914Z,15.60
2022-11-03T10:31:41.949Z,16.00
2022-11-03T10:34:43.668Z,16.00
2022-11-03T10:37:45.351Z,15.90
2022-11-03T10:40:48.317Z,16.00
2022-11-03T10:44:11.381Z,15.90
2022-11-03T10:47:34.267Z,16.10
2022-11-03T10:50:36.094Z,16.90
2022-11-03T10:53:38.049Z,17.10
2022-11-03T10:56:39.962Z,17.40
2022-11-03T10:59:42.525Z,17.30
2022-11-03T11:02:46.174Z,16.60
2022-11-03T11:05:48.683Z,15.80
2022-11-03T11:08:59.643Z,15.60
2022-11-03T11:12:14.833Z,15.50
2022-11-03T11:15:39.762Z,15.60
2022-11-03T11:18:42.344Z,15.50
2022-11-03T11:21:44.167Z,15.50
2022-11-03T11:24:45.927Z,15.50
2022-11-03T11:27:58.279Z,15.60
2022-11-03T11:31:00.529Z,15.60
2022-11-03T11:34:09.789Z,15.50
2022-11-03T11:37:32.433Z,15.50
2022-11-03T11:40:34.147Z,15.50
2022-11-03T11:43:36.025Z,15.40
2022-11-03T11:46:41.050Z,15.40
2022-11-03T11:49:42.852Z,15.30
2022-11-03T11:52:49.938Z,15.30
2022-11-03T11:55:56.092Z,15.30
2022-11-03T11:58:57.935Z,15.30
2022-11-03T12:02:00.208Z,15.30
2022-11-03T12:05:03.720Z,15.20
2022-11-03T12:08:18.783Z,15.10
2022-11-03T12:11:45.793Z,15.00
2022-11-03T12:14:49.038Z,14.90
2022-11-03T12:17:50.717Z,14.80
2022-11-03T12:20:52.486Z,14.60
2022-11-03T12:23:54.206Z,14.60
2022-11-03T12:26:56.077Z,14.60
2022-11-03T12:30:00.060Z,14.50
2022-11-03T12:33:01.852Z,14.50
2022-11-03T12:36:03.684Z,14.50
2022-11-03T12:39:05.831Z,14.70
2022-11-03T12:42:09.246Z,14.60
2022-11-03T12:45:13.599Z,14.70
2022-11-03T12:48:15.519Z,14.70
2022-11-03T12:51:19.835Z,14.70
2022-11-03T12:54:22.806Z,14.70
2022-11-03T12:57:24.900Z,14.90
2022-11-03T13:00:26.924Z,14.80
2022-11-03T13:03:29.079Z,14.70
2022-11-03T13:06:30.963Z,14.60
2022-11-03T13:09:32.822Z,14.50
2022-11-03T13:12:41.200Z,14.60
2022-11-03T13:15:42.887Z,14.60
2022-11-03T13:18:44.685Z,14.60
2022-11-03T13:21:46.393Z,14.50
2022-11-03T13:24:48.143Z,14.40
2022-11-03T13:27:53.885Z,14.50
2022-11-03T13:30:56.023Z,14.50
2022-11-03T13:33:57.691Z,14.60
2022-11-03T13:36:59.493Z,14.40
2022-11-03T13:40:01.198Z,14.30
2022-11-03T13:43:03.089Z,14.40
2022-11-03T13:46:05.218Z,14.50
2022-11-03T13:52:29.102Z,14.50
2022-11-03T13:55:46.045Z,14.60
2022-11-03T14:05:34.033Z,14.70
2022-11-03T14:08:35.828Z,14.60
2022-11-03T14:11:57.724Z,14.60
2022-11-03T14:15:02.032Z,14.50
2022-11-03T14:18:03.852Z,14.40
2022-11-03T14:21:05.663Z,14.40
2022-11-03T14:24:07.614Z,14.60
2022-11-03T14:27:09.432Z,14.60
2022-11-03T14:30:12.421Z,14.50
2022-11-03T14:33:14.217Z,14.50
2022-11-03T14:36:16.206Z,14.60
2022-11-03T14:39:17.909Z,14.60
2022-11-03T14:42:19.950Z,14.50
2022-11-03T14:45:21.742Z,14.50
2022-11-03T14:48:23.559Z,14.50
2022-11-03T14:51:25.215Z,14.50
2022-11-03T14:54:27.547Z,14.50
2022-11-03T14:57:29.208Z,14.50
2022-11-03T15:00:30.879Z,14.40
2022-11-03T15:03:32.577Z,14.50
2022-11-03T15:06:35.292Z,14.40
2022-11-03T15:09:36.970Z,14.40
2022-11-03T15:12:38.685Z,14.30
2022-11-03T15:15:41.550Z,14.30
2022-11-03T15:18:44.624Z,14.20
2022-11-03T15:21:46.315Z,14.10
2022-11-03T15:28:11.533Z,14.20
2022-11-03T15:31:13.362Z,14.20
2022-11-03T15:34:15.503Z,14.10
2022-11-03T15:37:17.190Z,14.10
2022-11-03T15:40:18.902Z,14.10
2022-11-03T15:43:20.787Z,14.10
2022-11-03T15:46:22.607Z,14.10
2022-11-03T15:49:24.632Z,14.10
2022-11-03T15:52:26.330Z,14.10
2022-11-03T15:55:28.275Z,14.00
2022-11-03T15:58:33.850Z,14.10
2022-11-03T16:01:35.802Z,14.10
2022-11-03T16:04:37.621Z,14.10
2022-11-03T16:07:40.100Z,14.10
2022-11-03T16:10:48.807Z,14.20
2022-11-03T16:13:53.673Z,14.20
2022-11-03T16:16:56.634Z,14.20
2022-11-03T16:19:58.602Z,14.20
2022-11-03T16:23:00.316Z,14.20
2022-11-03T16:26:04.429Z,14.20
2022-11-03T16:29:06.076Z,14.30
2022-11-03T16:32:07.922Z,14.30
2022-11-03T16:35:10.054Z,14.30
2022-11-03T16:38:13.591Z,14.30
2022-11-03T16:41:15.443Z,14.20
2022-11-03T16:44:17.175Z,14.20
2022-11-03T16:47:18.850Z,14.10
2022-11-03T16:50:20.862Z,14.10
2022-11-03T16:53:22.520Z,14.00
2022-11-03T16:56:24.311Z,14.00
2022-11-03T16:59:26.465Z,14.00
